Time;durP1;ratioP1;P1;durP2;ratioP2;P2;SDS_P1;SDS_P2;PMS_P1;PMS_P2;Temp;Humidity;BMP_temperature;BMP_pressure;BME280_temperature;BME280_humidity;BME280_pressure;Samples;Min_cycle;Max_cycle;Signal;HPM_P1;HPM_P2
2023/05/16 00:00:53;;;;;;;8.07;5.80;;;;;;;11.21;100.00;101325.13;5026763;28;20308;-72
2023/05/16 00:03:19;;;;;;;6.30;5.00;;;;;;;11.23;100.00;101323.44;5025468;28;20186;-72
2023/05/16 00:05:45;;;;;;;8.03;4.97;;;;;;;11.26;100.00;101325.22;5026509;28;20190;-72
2023/05/16 00:08:11;;;;;;;8.90;5.10;;;;;;;11.24;100.00;101325.19;5010652;28;20695;-72
2023/05/16 00:10:36;;;;;;;9.03;5.23;;;;;;;11.24;100.00;101322.63;5027005;28;20292;-72
2023/05/16 00:13:02;;;;;;;5.80;4.53;;;;;;;11.24;100.00;101329.47;5028374;28;20228;-73
2023/05/16 00:15:31;;;;;;;6.30;4.40;;;;;;;11.19;100.00;101326.75;5008986;28;20194;-73
2023/05/16 00:18:00;;;;;;;7.60;4.03;;;;;;;11.20;100.00;101323.38;5028043;28;20214;-72
2023/05/16 00:20:26;;;;;;;4.47;3.60;;;;;;;11.22;100.00;101325.97;5024883;28;20240;-72
2023/05/16 00:22:52;;;;;;;6.47;4.40;;;;;;;11.23;100.00;101333.72;5010279;28;20273;-72
2023/05/16 00:25:18;;;;;;;6.50;4.40;;;;;;;11.23;100.00;101333.72;5028002;28;20210;-72
2023/05/16 00:27:43;;;;;;;7.07;4.63;;;;;;;11.23;100.00;101336.28;5023254;28;20218;-72
2023/05/16 00:30:09;;;;;;;5.23;4.40;;;;;;;11.25;100.00;101334.59;5027554;28;20190;-72
2023/05/16 00:32:35;;;;;;;7.57;4.97;;;;;;;11.24;100.00;101330.31;5006945;28;20203;-73
2023/05/16 00:35:01;;;;;;;5.83;4.63;;;;;;;11.27;100.00;101330.41;5012576;28;20280;-72
2023/05/16 00:37:26;;;;;;;5.10;4.47;;;;;;;11.27;100.00;101330.41;5024646;28;20285;-72
2023/05/16 00:39:52;;;;;;;4.33;3.93;;;;;;;11.25;100.00;101331.19;5026853;28;20232;-72
2023/05/16 00:42:19;;;;;;;5.73;4.00;;;;;;;11.24;100.00;101338.00;5027953;28;20190;-72
2023/05/16 00:44:45;;;;;;;5.37;3.40;;;;;;;11.31;100.00;101336.44;5009489;28;20190;-72
2023/05/16 00:47:11;;;;;;;4.43;3.50;;;;;;;11.30;100.00;101335.56;5024967;28;20222;-72
2023/05/16 00:49:36;;;;;;;4.87;3.20;;;;;;;11.30;100.00;101333.00;5035104;28;20282;-72
2023/05/16 00:52:02;;;;;;;4.40;2.93;;;;;;;11.29;100.00;101343.25;5028982;28;20206;-72
2023/05/16 00:54:29;;;;;;;5.43;2.80;;;;;;;11.31;100.00;101336.44;5029684;28;20190;-72
2023/05/16 00:56:55;;;;;;;5.40;3.20;;;;;;;11.28;100.00;101344.94;5007261;28;20348;-72
2023/05/16 00:59:24;;;;;;;6.00;3.20;;;;;;;11.30;100.00;101350.94;5005135;28;20615;-72
2023/05/16 01:01:51;;;;;;;4.47;3.70;;;;;;;11.31;100.00;101350.16;5023935;28;20195;-72
2023/05/16 01:04:17;;;;;;;5.80;3.60;;;;;;;11.32;100.00;101346.75;5009389;28;20694;-72
2023/05/16 01:06:44;;;;;;;4.20;3.70;;;;;;;11.35;100.00;101349.41;5009060;28;20203;-72
2023/05/16 01:09:11;;;;;;;5.90;4.20;;;;;;;11.37;100.00;101342.59;5009357;28;20197;-72
2023/05/16 01:11:49;;;;;;;5.03;4.00;;;;;;;11.38;100.00;101352.00;5039462;28;20195;-73
2023/05/16 01:14:24;;;;;;;4.37;3.90;;;;;;;11.36;100.00;101355.38;5006990;28;20194;-72
2023/05/16 01:16:53;;;;;;;6.07;4.43;;;;;;;11.37;100.00;101350.28;5039150;28;20213;-73
2023/05/16 01:19:37;;;;;;;6.63;4.10;;;;;;;11.39;100.00;101355.47;5026759;28;20230;-73
2023/05/16 01:22:15;;;;;;;5.10;3.97;;;;;;;11.42;100.00;101347.81;5009938;28;20281;-73
2023/05/16 01:24:43;;;;;;;5.43;3.63;;;;;;;11.44;100.00;101359.88;5024603;28;20564;-73
2023/05/16 01:27:10;;;;;;;3.80;3.40;;;;;;;11.44;100.00;101354.75;5005913;28;20222;-73
2023/05/16 01:29:36;;;;;;;4.73;3.13;;;;;;;11.46;100.00;101354.75;5035442;28;20824;-73
2023/05/16 01:32:03;;;;;;;5.57;3.10;;;;;;;11.48;100.00;101348.84;5029697;28;20209;-72
2023/05/16 01:34:28;;;;;;;4.53;2.70;;;;;;;11.48;100.00;101348.84;5011223;28;20598;-73
2023/05/16 01:37:34;;;;;;;4.30;2.63;;;;;;;11.51;100.00;101345.47;5012073;28;20223;-73
2023/05/16 01:40:11;;;;;;;4.10;3.20;;;;;;;11.53;100.00;101338.69;5023283;28;20631;-72
2023/05/16 01:42:41;;;;;;;7.43;3.20;;;;;;;11.54;100.00;101338.75;5030169;28;20202;-73
2023/05/16 01:45:11;;;;;;;6.03;2.70;;;;;;;11.53;100.00;101331.84;5013007;28;20691;-72
2023/05/16 01:47:41;;;;;;;4.67;3.00;;;;;;;11.54;100.00;101333.63;5027889;28;20320;-72
2023/05/16 01:50:19;;;;;;;4.20;2.60;;;;;;;11.54;100.00;101331.06;5011493;28;20183;-72
2023/05/16 01:52:58;;;;;;;6.03;2.60;;;;;;;11.56;100.00;101331.94;5027671;28;20214;-72
2023/05/16 01:55:41;;;;;;;3.40;2.50;;;;;;;11.59;100.00;101333.69;5009973;28;20256;-72
2023/05/16 01:58:07;;;;;;;3.90;2.73;;;;;;;11.58;100.00;101327.72;5027488;28;20206;-72
2023/05/16 02:00:33;;;;;;;3.43;2.73;;;;;;;11.61;100.00;101338.06;5029471;28;20280;-73
2023/05/16 02:02:59;;;;;;;3.10;2.33;;;;;;;11.60;100.00;101341.47;5012025;28;20671;-72
2023/05/16 02:05:24;;;;;;;4.30;2.23;;;;;;;11.62;100.00;101336.38;5026715;28;20186;-72
2023/05/16 02:07:50;;;;;;;4.23;2.60;;;;;;;11.64;100.00;101337.28;5012221;28;20218;-72
2023/05/16 02:10:15;;;;;;;4.30;2.60;;;;;;;11.66;100.00;101339.03;5012644;28;20252;-72
2023/05/16 02:12:41;;;;;;;5.33;2.90;;;;;;;11.69;100.00;101348.50;5027425;28;20243;-74
2023/05/16 02:15:07;;;;;;;6.10;3.33;;;;;;;11.67;100.00;101338.22;5012422;28;20663;-72
2023/05/16 02:17:33;;;;;;;6.27;3.77;;;;;;;11.62;100.00;101342.38;5009537;28;20214;-72
2023/05/16 02:20:05;;;;;;;6.23;3.70;;;;;;;11.63;100.00;101340.69;5027006;28;20627;-72
2023/05/16 02:22:32;;;;;;;7.57;4.60;;;;;;;11.62;100.00;101344.94;5008696;28;20229;-72
2023/05/16 02:24:59;;;;;;;10.50;4.40;;;;;;;11.64;100.00;101343.28;5029805;28;20202;-72
2023/05/16 02:27:25;;;;;;;6.70;3.90;;;;;;;11.65;100.00;101333.88;5011723;28;20248;-72
2023/05/16 02:29:50;;;;;;;7.90;3.60;;;;;;;11.59;100.00;101342.31;5028320;28;20543;-73
2023/05/16 02:32:16;;;;;;;8.07;3.73;;;;;;;11.62;100.00;101344.06;5011118;28;20213;-73
2023/05/16 02:34:41;;;;;;;8.67;3.20;;;;;;;11.59;100.00;101346.53;5041712;28;20190;-72
2023/05/16 02:37:07;;;;;;;8.27;3.20;;;;;;;11.57;100.00;101369.56;5009285;28;20215;-72
2023/05/16 02:39:32;;;;;;;8.17;2.80;;;;;;;11.55;100.00;101363.56;5006555;28;20297;-73
2023/05/16 02:41:58;;;;;;;10.13;3.10;;;;;;;11.51;100.00;101358.28;5029788;28;20573;-72
2023/05/16 02:44:23;;;;;;;10.03;2.77;;;;;;;11.55;100.00;101365.25;5011627;28;20235;-72
2023/05/16 02:46:49;;;;;;;7.63;2.80;;;;;;;11.50;100.00;101362.59;5024133;28;20221;-73
2023/05/16 02:49:14;;;;;;;9.33;2.90;;;;;;;11.46;100.00;101371.03;5027291;28;20202;-72
2023/05/16 02:51:40;;;;;;;7.80;3.30;;;;;;;11.44;100.00;101374.38;5011247;28;20663;-72
2023/05/16 02:54:08;;;;;;;5.83;2.47;;;;;;;11.45;100.00;101378.69;5010933;28;20194;-73
2023/05/16 02:56:34;;;;;;;6.53;2.60;;;;;;;11.40;100.00;101373.44;5010341;28;20273;-72
2023/05/16 02:59:00;;;;;;;8.37;2.43;;;;;;;11.36;100.00;101387.03;4994606;28;20210;-72
2023/05/16 03:01:25;;;;;;;7.77;2.23;;;;;;;11.36;100.00;101389.59;5007796;28;20535;-72
2023/05/16 03:03:51;;;;;;;14.00;2.97;;;;;;;11.36;100.00;101389.59;5011675;28;20197;-73
2023/05/16 03:06:16;;;;;;;8.83;2.77;;;;;;;11.32;100.00;101397.16;5027898;28;20272;-72
2023/05/16 03:08:42;;;;;;;6.63;2.23;;;;;;;11.33;100.00;101391.22;5010813;28;20644;-72
2023/05/16 03:11:07;;;;;;;6.57;2.20;;;;;;;11.34;100.00;101405.75;5026506;28;20236;-72
2023/05/16 03:13:33;;;;;;;6.27;2.27;;;;;;;11.33;100.00;101397.19;5029176;28;20190;-72
2023/05/16 03:15:58;;;;;;;4.87;2.03;;;;;;;11.37;100.00;101399.00;5010784;28;20198;-72
2023/05/16 03:18:24;;;;;;;13.50;2.83;;;;;;;11.35;100.00;101397.22;5026144;28;20635;-73
2023/05/16 03:20:51;;;;;;;9.57;2.80;;;;;;;11.31;100.00;101403.09;5009467;28;20206;-72
2023/05/16 03:23:20;;;;;;;10.30;2.70;;;;;;;11.32;100.00;101404.84;5011102;28;20198;-73
2023/05/16 03:25:46;;;;;;;12.47;2.33;;;;;;;11.29;100.00;101412.47;5027675;28;20190;-72
2023/05/16 03:28:11;;;;;;;8.63;2.47;;;;;;;11.30;100.00;101419.31;5009640;28;20229;-72
2023/05/16 03:30:37;;;;;;;9.90;2.53;;;;;;;11.30;100.00;101416.75;5027924;28;20194;-72
2023/05/16 03:33:03;;;;;;;5.07;2.10;;;;;;;11.29;100.00;101420.16;5000070;28;20186;-72
2023/05/16 03:35:30;;;;;;;10.63;2.27;;;;;;;11.26;100.00;101409.81;5030020;28;20194;-72
2023/05/16 03:37:55;;;;;;;7.83;2.43;;;;;;;11.26;100.00;101420.06;5027780;28;20210;-72
2023/05/16 03:40:21;;;;;;;10.13;2.60;;;;;;;11.27;100.00;101415.00;5005684;28;20229;-72
2023/05/16 03:42:47;;;;;;;11.23;2.80;;;;;;;11.22;100.00;101419.13;5026608;28;20194;-73
2023/05/16 03:45:12;;;;;;;12.53;3.13;;;;;;;11.28;100.00;101418.41;5023481;28;20244;-72
2023/05/16 03:47:38;;;;;;;9.00;2.53;;;;;;;11.28;100.00;101413.28;5026640;28;20295;-72
2023/05/16 03:50:04;;;;;;;11.57;3.20;;;;;;;11.25;100.00;101415.78;5028076;28;20546;-72
2023/05/16 03:52:30;;;;;;;11.97;3.10;;;;;;;11.26;100.00;101414.94;5010036;28;20198;-72
2023/05/16 03:54:55;;;;;;;9.30;3.20;;;;;;;11.18;100.00;101422.44;5025613;28;20225;-71
2023/05/16 03:57:21;;;;;;;12.07;3.20;;;;;;;11.22;100.00;101420.81;5023089;28;20222;-73
2023/05/16 03:59:47;;;;;;;10.90;2.73;;;;;;;11.21;100.00;101425.09;5027627;28;20263;-72
2023/05/16 04:02:12;;;;;;;13.97;2.70;;;;;;;11.20;100.00;101435.31;5027198;28;20855;-72
2023/05/16 04:04:38;;;;;;;13.20;3.00;;;;;;;11.16;100.00;101439.47;5024221;28;20554;-72
2023/05/16 04:07:03;;;;;;;12.83;2.93;;;;;;;11.21;100.00;101445.59;5025923;28;20576;-72
2023/05/16 04:09:29;;;;;;;11.93;2.40;;;;;;;11.18;100.00;101453.19;5027764;28;20222;-72
2023/05/16 04:11:55;;;;;;;10.93;2.83;;;;;;;11.18;100.00;101439.50;5024403;28;20194;-72
2023/05/16 04:14:22;;;;;;;11.67;2.63;;;;;;;11.15;100.00;101449.69;5027703;28;20206;-72
2023/05/16 04:16:48;;;;;;;11.80;2.63;;;;;;;11.14;100.00;101440.25;5026651;28;20206;-72
2023/05/16 04:19:13;;;;;;;10.83;2.50;;;;;;;11.15;100.00;101440.28;5025471;28;20201;-72
2023/05/16 04:21:39;;;;;;;10.20;2.63;;;;;;;11.15;100.00;101449.69;5022546;28;20222;-72
2023/05/16 04:24:05;;;;;;;11.30;2.73;;;;;;;11.14;100.00;101441.13;5025895;28;20277;-72
2023/05/16 04:26:30;;;;;;;12.20;2.57;;;;;;;11.09;100.00;101446.94;5027658;28;20214;-72
2023/05/16 04:28:57;;;;;;;14.90;2.87;;;;;;;11.11;100.00;101461.53;5028760;28;20227;-72
2023/05/16 04:31:24;;;;;;;10.53;2.23;;;;;;;11.13;100.00;101459.03;5032055;28;20220;-72
2023/05/16 04:33:50;;;;;;;12.00;2.30;;;;;;;11.13;100.00;101467.59;5029965;28;20752;-72
2023/05/16 04:36:15;;;;;;;12.07;2.47;;;;;;;11.17;100.00;101471.97;5028706;28;20284;-72
2023/05/16 04:38:41;;;;;;;9.97;2.37;;;;;;;11.16;100.00;101479.63;5029378;28;20210;-72
2023/05/16 04:41:07;;;;;;;10.73;2.53;;;;;;;11.18;100.00;101478.84;5028630;28;20698;-72
2023/05/16 04:43:32;;;;;;;13.40;2.57;;;;;;;11.23;100.00;101479.81;5031218;28;20566;-72
2023/05/16 04:45:58;;;;;;;9.37;2.67;;;;;;;11.20;100.00;101473.75;5030966;28;20186;-72
2023/05/16 04:48:23;;;;;;;13.77;2.77;;;;;;;11.27;100.00;101476.53;5026027;28;20695;-72
2023/05/16 04:50:50;;;;;;;8.63;2.23;;;;;;;11.29;100.00;101474.84;5019129;28;20178;-72
2023/05/16 04:53:15;;;;;;;12.23;2.90;;;;;;;11.34;100.00;101451.91;5031457;28;20277;-73
2023/05/16 04:55:41;;;;;;;10.87;2.50;;;;;;;11.37;100.00;101470.81;5029028;28;20289;-73
2023/05/16 04:58:07;;;;;;;12.30;2.33;;;;;;;11.39;100.00;101476.81;5027315;28;20210;-73
2023/05/16 05:00:32;;;;;;;11.50;2.40;;;;;;;11.47;100.00;101484.75;5031339;28;20240;-73
2023/05/16 05:02:58;;;;;;;11.93;2.87;;;;;;;11.47;100.00;101493.28;5030326;28;20559;-73
2023/05/16 05:05:23;;;;;;;11.20;2.40;;;;;;;11.47;100.00;101477.91;5025209;28;20223;-73
2023/05/16 05:07:48;;;;;;;12.47;2.93;;;;;;;11.48;100.00;101473.66;5031005;28;20743;-73
2023/05/16 05:10:14;;;;;;;15.67;2.67;;;;;;;11.50;100.00;101472.84;5013709;28;20289;-72
2023/05/16 05:12:39;;;;;;;13.50;2.90;;;;;;;11.51;100.00;101432.66;5030835;28;20201;-72
2023/05/16 05:15:05;;;;;;;11.10;2.27;;;;;;;11.55;100.00;101417.41;5027417;28;20194;-72
2023/05/16 05:17:31;;;;;;;11.97;2.30;;;;;;;11.62;100.00;101408.22;5030048;28;20225;-73
2023/05/16 05:19:57;;;;;;;12.17;2.30;;;;;;;11.65;100.00;101386.06;5029059;28;20218;-72
2023/05/16 05:22:22;;;;;;;9.23;2.40;;;;;;;11.64;100.00;101375.75;5029805;28;20197;-72
2023/05/16 05:24:47;;;;;;;16.63;2.77;;;;;;;11.69;100.00;101358.75;5028810;28;21119;-72
2023/05/16 05:27:13;;;;;;;11.17;2.47;;;;;;;11.74;100.00;101363.19;5030882;28;20210;-72
2023/05/16 05:29:38;;;;;;;12.23;2.13;;;;;;;11.72;100.00;101362.28;5030607;28;20201;-73
2023/05/16 05:32:04;;;;;;;10.27;2.43;;;;;;;11.73;100.00;101340.03;5022230;28;20253;-72
2023/05/16 05:34:30;;;;;;;10.77;2.50;;;;;;;11.83;100.00;101312.06;5006336;28;20225;-73
2023/05/16 05:36:56;;;;;;;16.10;2.37;;;;;;;11.93;100.00;101272.94;5027492;28;20769;-73
2023/05/16 05:39:21;;;;;;;9.80;2.43;;;;;;;12.01;100.00;101262.81;5008578;28;20297;-73
2023/05/16 05:41:47;;;;;;;15.60;2.40;;;;;;;12.08;100.00;101264.69;5018148;28;20222;-73
2023/05/16 05:44:12;;;;;;;13.70;2.60;;;;;;;12.21;100.00;101290.63;5027713;28;20194;-73
2023/05/16 05:46:38;;;;;;;10.83;1.83;;;;;;;12.27;100.00;101256.50;5005892;28;20680;-73
2023/05/16 05:49:04;;;;;;;10.40;2.20;;;;;;;12.36;100.00;101251.53;5029019;28;20194;-73
2023/05/16 05:51:30;;;;;;;12.63;3.57;;;;;;;12.45;100.00;101239.72;5024630;28;20197;-72
2023/05/16 05:53:56;;;;;;;9.03;1.77;;;;;;;12.56;100.00;101209.97;5028517;28;20203;-73
2023/05/16 05:56:23;;;;;;;9.17;2.10;;;;;;;12.65;100.00;101193.81;5025138;28;20194;-73
2023/05/16 05:58:49;;;;;;;8.17;2.10;;;;;;;12.69;100.00;101164.78;5009572;28;20607;-72
2023/05/16 06:01:15;;;;;;;9.60;1.70;;;;;;;12.65;100.00;101150.16;5025814;28;20234;-73
2023/05/16 06:03:41;;;;;;;11.47;2.67;;;;;;;12.73;100.00;101167.41;5029351;28;20194;-73
2023/05/16 06:06:07;;;;;;;10.87;2.23;;;;;;;12.80;100.00;101173.50;5029022;28;20186;-73
2023/05/16 06:08:33;;;;;;;17.70;2.70;;;;;;;13.00;100.00;101163.56;5025825;28;20579;-73
2023/05/16 06:10:59;;;;;;;12.63;2.37;;;;;;;13.15;100.00;101192.06;5007861;28;20199;-73
2023/05/16 06:13:24;;;;;;;9.83;2.00;;;;;;;13.29;100.00;101200.84;5022371;28;20187;-73
2023/05/16 06:15:53;;;;;;;12.43;2.23;;;;;;;13.46;100.00;101129.91;5026333;28;20535;-73
2023/05/16 06:18:20;;;;;;;9.07;2.53;;;;;;;13.52;100.00;101125.72;5024620;28;20210;-73
2023/05/16 06:20:45;;;;;;;10.70;2.07;;;;;;;13.55;98.72;101087.16;5024992;28;20583;-73
2023/05/16 06:23:11;;;;;;;9.57;2.20;;;;;;;13.24;98.18;101086.75;5025790;28;20201;-73
2023/05/16 06:25:37;;;;;;;9.20;1.90;;;;;;;13.17;100.00;101115.81;5023878;28;20272;-72
2023/05/16 06:28:02;;;;;;;8.43;1.83;;;;;;;13.22;100.00;101151.03;5019275;28;20220;-73
2023/05/16 06:30:28;;;;;;;11.00;2.00;;;;;;;13.33;100.00;101206.06;5006044;28;20200;-75
2023/05/16 06:32:53;;;;;;;10.20;2.10;;;;;;;13.06;100.00;101220.22;5024575;28;20201;-75
2023/05/16 06:35:19;;;;;;;9.43;2.07;;;;;;;12.90;100.00;101243.06;5028635;28;20194;-74
2023/05/16 06:37:44;;;;;;;9.53;2.03;;;;;;;12.85;100.00;101283.25;5024248;28;20265;-74
2023/05/16 06:40:11;;;;;;;11.27;2.50;;;;;;;12.77;100.00;101309.69;5029200;28;20218;-73
2023/05/16 06:42:36;;;;;;;8.77;1.83;;;;;;;12.68;100.00;101315.50;5029065;28;20202;-74
2023/05/16 06:45:02;;;;;;;6.70;2.00;;;;;;;12.67;100.00;101312.94;5011157;28;20317;-73
2023/05/16 06:47:27;;;;;;;13.73;2.50;;;;;;;12.63;100.00;101324.81;5022689;28;20224;-74
2023/05/16 06:49:52;;;;;;;11.13;2.10;;;;;;;12.60;100.00;101321.34;5025825;28;20198;-74
2023/05/16 06:52:18;;;;;;;12.43;2.13;;;;;;;12.52;100.00;101294.63;5029111;28;20205;-74
2023/05/16 06:54:43;;;;;;;9.67;2.10;;;;;;;12.63;100.00;101317.13;5028850;28;20186;-74
2023/05/16 06:57:09;;;;;;;8.67;1.90;;;;;;;12.55;100.00;101300.72;5024236;28;20710;-73
2023/05/16 06:59:34;;;;;;;8.70;2.17;;;;;;;12.50;100.00;101301.47;5028921;28;20214;-73
2023/05/16 07:02:00;;;;;;;10.53;1.90;;;;;;;12.48;100.00;101310.81;4997768;28;20221;-74
2023/05/16 07:04:26;;;;;;;8.53;1.80;;;;;;;12.44;100.00;101316.78;5027794;28;20277;-74
2023/05/16 07:06:52;;;;;;;11.70;2.20;;;;;;;12.39;100.00;101321.78;5028538;28;20706;-74
2023/05/16 07:09:18;;;;;;;10.10;2.13;;;;;;;12.70;100.00;101348.94;5026734;28;20194;-75
2023/05/16 07:11:43;;;;;;;10.53;1.83;;;;;;;13.17;100.00;101324.97;5028529;28;20224;-75
2023/05/16 07:14:09;;;;;;;10.10;2.97;;;;;;;12.95;100.00;101320.28;5026662;28;20285;-75
2023/05/16 07:16:35;;;;;;;7.10;2.40;;;;;;;13.39;100.00;101306.47;5010862;28;20583;-75
2023/05/16 07:19:00;;;;;;;11.60;2.30;;;;;;;13.24;98.92;101211.09;5028543;28;20195;-74
2023/05/16 07:21:26;;;;;;;7.17;1.97;;;;;;;13.23;95.57;101182.75;5027349;28;20313;-74
2023/05/16 07:23:52;;;;;;;9.90;1.87;;;;;;;13.93;98.81;101187.94;5026635;28;20232;-74
2023/05/16 07:26:17;;;;;;;13.43;2.23;;;;;;;13.75;93.15;101162.00;5028043;28;20708;-75
2023/05/16 07:28:43;;;;;;;9.10;1.57;;;;;;;14.20;89.61;101117.03;5028307;28;20214;-75
2023/05/16 07:31:08;;;;;;;7.37;1.60;;;;;;;14.60;79.78;101070.09;5010800;28;20214;-75
2023/05/16 07:33:34;;;;;;;6.83;1.83;;;;;;;14.98;80.34;101035.09;5028387;28;20659;-75
2023/05/16 07:36:00;;;;;;;10.90;1.73;;;;;;;15.17;72.37;100997.34;5029108;28;20702;-75
2023/05/16 07:38:25;;;;;;;9.00;1.77;;;;;;;15.21;71.33;100991.34;5028213;28;20300;-75
2023/05/16 07:40:51;;;;;;;8.40;1.50;;;;;;;15.51;70.88;101018.09;5027462;28;20308;-75
2023/05/16 07:43:17;;;;;;;7.43;2.00;;;;;;;15.67;66.08;101070.63;5028493;28;20206;-75
2023/05/16 07:45:42;;;;;;;6.60;1.40;;;;;;;15.69;61.23;101062.03;5027529;28;20196;-75
2023/05/16 07:48:08;;;;;;;6.93;1.67;;;;;;;15.80;57.66;101077.56;5028124;28;20842;-75
2023/05/16 07:50:34;;;;;;;5.67;1.50;;;;;;;16.06;58.89;101119.78;5027031;28;20190;-75
2023/05/16 07:53:00;;;;;;;6.73;1.60;;;;;;;16.19;56.83;101129.28;5028163;28;20283;-75
2023/05/16 07:55:25;;;;;;;11.40;1.50;;;;;;;16.32;54.25;101138.75;5028148;28;20555;-75
2023/05/16 07:57:51;;;;;;;6.70;1.67;;;;;;;16.37;54.68;101148.25;5009374;28;20214;-75
2023/05/16 08:00:17;;;;;;;3.90;1.33;;;;;;;16.13;56.06;101194.75;5010633;28;20215;-74
2023/05/16 08:02:42;;;;;;;6.33;1.57;;;;;;;15.62;57.08;101224.69;5027995;28;20190;-75
2023/05/16 08:05:08;;;;;;;7.43;1.73;;;;;;;15.36;59.60;101260.66;5027701;28;20255;-74
2023/05/16 08:07:34;;;;;;;6.33;1.70;;;;;;;15.30;58.59;101246.81;5026695;28;20305;-74
2023/05/16 08:09:59;;;;;;;7.13;1.47;;;;;;;15.27;58.66;101244.19;5028121;28;20202;-74
2023/05/16 08:12:26;;;;;;;8.30;1.90;;;;;;;16.07;56.96;101217.13;5027996;28;20187;-75
2023/05/16 08:14:51;;;;;;;5.60;1.30;;;;;;;16.39;56.62;101223.22;5026127;28;20229;-75
2023/05/16 08:17:17;;;;;;;6.10;1.40;;;;;;;16.60;53.91;101218.09;5027461;28;20214;-75
2023/05/16 08:19:42;;;;;;;7.20;1.57;;;;;;;16.70;55.34;101240.53;5020704;28;20210;-75
2023/05/16 08:22:08;;;;;;;8.83;1.67;;;;;;;16.26;57.35;101276.59;5028207;28;20702;-74
2023/05/16 08:24:34;;;;;;;9.50;1.67;;;;;;;15.87;65.49;101374.59;5024398;28;20197;-75
2023/05/16 08:27:00;;;;;;;6.83;1.97;;;;;;;15.89;65.69;101383.22;5018484;28;20213;-75
2023/05/16 08:29:25;;;;;;;11.73;2.40;;;;;;;15.50;66.46;101382.94;5022945;28;20240;-74
2023/05/16 08:31:51;;;;;;;8.10;2.03;;;;;;;14.99;70.21;101415.97;5027843;28;20694;-75
2023/05/16 08:34:16;;;;;;;10.70;2.30;;;;;;;15.93;67.81;101390.13;5027761;28;20189;-75
2023/05/16 08:36:42;;;;;;;5.10;1.37;;;;;;;16.25;59.89;101305.88;5020057;28;20591;-75
2023/05/16 08:39:10;;;;;;;10.20;2.27;;;;;;;15.92;62.15;101313.50;5027890;28;20232;-74
2023/05/16 08:41:36;;;;;;;5.47;1.63;;;;;;;15.41;68.11;101382.84;5027897;28;20214;-75
2023/05/16 08:44:01;;;;;;;6.67;1.73;;;;;;;15.20;64.96;101363.72;5027731;28;20313;-74
2023/05/16 08:46:28;;;;;;;9.70;1.70;;;;;;;16.34;61.11;101300.75;5026231;28;20216;-74
2023/05/16 08:48:58;;;;;;;7.53;1.63;;;;;;;16.95;56.17;101248.31;5026960;28;20222;-75
2023/05/16 08:51:24;;;;;;;7.70;1.67;;;;;;;17.08;53.81;101242.25;5026363;28;20206;-75
2023/05/16 08:54:02;;;;;;;7.53;1.83;;;;;;;16.87;53.77;101252.63;5026779;28;20194;-74
2023/05/16 08:56:28;;;;;;;6.90;1.70;;;;;;;17.20;53.21;101247.44;5007140;28;20687;-75
2023/05/16 08:58:54;;;;;;;7.13;1.70;;;;;;;17.25;55.36;101279.38;5022389;28;20230;-75
2023/05/16 09:01:23;;;;;;;10.63;1.57;;;;;;;16.18;52.30;101257.63;5024833;28;20209;-75
2023/05/16 09:03:49;;;;;;;6.20;1.67;;;;;;;15.88;54.52;101313.47;5021469;28;20198;-74
2023/05/16 09:06:15;;;;;;;5.10;1.53;;;;;;;16.32;51.26;101263.72;5027333;28;20195;-74
2023/05/16 09:08:41;;;;;;;7.87;1.60;;;;;;;16.98;51.86;101289.72;5027482;28;20230;-75
2023/05/16 09:11:08;;;;;;;7.57;1.77;;;;;;;17.26;49.96;101267.25;5030006;28;20190;-75
2023/05/16 09:13:34;;;;;;;7.13;1.70;;;;;;;17.73;50.41;101340.63;5025956;28;20194;-75
2023/05/16 09:16:11;;;;;;;6.10;1.60;;;;;;;18.09;49.11;101335.34;5031327;28;20190;-75
2023/05/16 09:18:37;;;;;;;6.63;1.70;;;;;;;18.01;49.27;101342.28;5031021;28;20241;-75
2023/05/16 09:21:04;;;;;;;8.73;1.80;;;;;;;18.32;52.68;101424.28;5031799;28;20559;-73
2023/05/16 09:23:30;;;;;;;9.50;2.03;;;;;;;18.10;50.35;101371.63;5011741;28;20609;-74
2023/05/16 09:25:57;;;;;;;6.53;1.60;;;;;;;18.17;52.08;101399.28;5031072;28;20197;-75
2023/05/16 09:28:24;;;;;;;7.93;1.00;;;;;;;18.13;42.57;101392.38;5030815;28;20210;-73
2023/05/16 09:30:51;;;;;;;7.60;1.53;;;;;;;17.30;44.58;101432.97;5012956;28;20217;-74
2023/05/16 09:33:17;;;;;;;6.67;1.33;;;;;;;17.36;46.86;101468.38;5023511;28;20187;-74
2023/05/16 09:35:42;;;;;;;5.47;1.30;;;;;;;17.55;47.33;101476.19;5027565;28;20796;-74
2023/05/16 09:38:14;;;;;;;4.40;1.30;;;;;;;17.82;47.44;101477.94;5030640;28;20301;-75
2023/05/16 09:40:40;;;;;;;5.57;1.33;;;;;;;18.07;47.20;101448.56;5028318;28;20221;-75
2023/05/16 09:43:07;;;;;;;4.63;1.40;;;;;;;18.41;45.73;101411.31;5028173;28;20206;-76
2023/05/16 09:45:34;;;;;;;5.10;1.53;;;;;;;18.44;46.02;101407.00;5032201;28;20255;-75
2023/05/16 09:48:05;;;;;;;6.30;1.30;;;;;;;18.38;42.87;101395.78;5030436;28;20722;-77
2023/05/16 09:50:34;;;;;;;6.23;1.60;;;;;;;18.76;43.54;101412.06;5030198;28;20190;-74
2023/05/16 09:53:01;;;;;;;6.37;1.40;;;;;;;18.53;43.66;101408.69;5030904;28;20194;-74
2023/05/16 09:55:27;;;;;;;4.63;1.17;;;;;;;18.55;44.00;101427.69;5028989;28;20199;-74
2023/05/16 09:57:52;;;;;;;5.87;1.33;;;;;;;18.51;42.94;101408.69;5025807;28;20228;-73
2023/05/16 10:00:18;;;;;;;5.13;1.40;;;;;;;18.64;42.52;101402.59;5031087;28;20207;-74
2023/05/16 10:02:44;;;;;;;7.00;1.60;;;;;;;18.64;42.62;101414.69;5030693;28;20281;-73
2023/05/16 10:05:10;;;;;;;4.73;1.33;;;;;;;18.60;42.38;101403.47;5030386;28;20198;-74
2023/05/16 10:07:38;;;;;;;6.77;1.53;;;;;;;18.72;44.02;101454.47;5028973;28;20285;-73
2023/05/16 10:10:07;;;;;;;4.30;1.30;;;;;;;19.23;44.29;101449.91;5029693;28;20569;-74
2023/05/16 10:12:35;;;;;;;6.77;1.60;;;;;;;19.48;44.64;101450.63;5010223;28;20194;-74
2023/05/16 10:15:03;;;;;;;6.23;1.33;;;;;;;19.20;44.46;101447.28;5026847;28;20593;-76
2023/05/16 10:17:32;;;;;;;8.13;1.80;;;;;;;19.45;42.55;101409.94;5030529;28;20634;-74
2023/05/16 10:20:03;;;;;;;8.47;1.77;;;;;;;18.52;44.49;101445.91;5030442;28;20280;-75
2023/05/16 10:22:33;;;;;;;5.80;1.60;;;;;;;17.83;44.98;101477.94;5028756;28;20190;-76
2023/05/16 10:25:14;;;;;;;9.23;1.97;;;;;;;17.25;45.98;101504.59;5012483;28;20194;-73
2023/05/16 10:27:41;;;;;;;6.17;1.63;;;;;;;17.70;45.45;101499.53;5029793;28;20267;-75
2023/05/16 10:30:08;;;;;;;7.37;1.50;;;;;;;18.49;44.63;101477.91;5011350;28;20201;-75
2023/05/16 10:32:35;;;;;;;3.80;1.40;;;;;;;18.77;44.92;101473.47;5030155;28;20671;-75
2023/05/16 10:35:02;;;;;;;9.03;1.40;;;;;;;18.76;45.30;101470.03;5030306;28;20202;-74
2023/05/16 10:37:30;;;;;;;6.47;1.77;;;;;;;18.99;45.29;101462.13;5025466;28;20261;-74
2023/05/16 10:39:58;;;;;;;5.87;1.50;;;;;;;18.84;46.21;101485.56;5029643;28;20245;-75
2023/05/16 10:42:23;;;;;;;7.67;2.00;;;;;;;18.84;47.54;101508.94;5015110;28;21040;-75
2023/05/16 10:44:55;;;;;;;8.60;1.93;;;;;;;19.15;48.18;101533.88;5029453;28;20217;-75
2023/05/16 10:47:21;;;;;;;4.97;1.63;;;;;;;18.92;46.94;101495.03;5026006;28;20214;-75
2023/05/16 10:49:46;;;;;;;5.30;1.77;;;;;;;18.89;43.59;101427.53;5029360;28;20742;-75
2023/05/16 10:52:14;;;;;;;6.57;1.40;;;;;;;19.02;43.00;101425.78;5011596;28;20286;-75
2023/05/16 10:54:50;;;;;;;4.73;1.37;;;;;;;19.30;43.16;101451.59;5024374;28;20320;-75
2023/05/16 10:57:20;;;;;;;4.60;1.20;;;;;;;18.93;43.09;101446.59;5024389;28;20209;-75
2023/05/16 10:59:47;;;;;;;8.93;1.70;;;;;;;18.83;42.84;101448.34;5008376;28;20237;-77
2023/05/16 11:02:33;;;;;;;4.30;1.20;;;;;;;19.36;42.73;101440.31;5018894;28;20556;-76
2023/05/16 11:05:00;;;;;;;6.80;1.70;;;;;;;19.16;43.29;101448.16;5027359;28;20190;-76
2023/05/16 11:07:34;;;;;;;4.47;1.30;;;;;;;18.98;42.52;101443.06;5025072;28;20214;-77
2023/05/16 11:10:07;;;;;;;9.60;1.77;;;;;;;19.09;42.92;101458.59;5012024;28;20191;-76
2023/05/16 11:12:50;;;;;;;6.27;1.50;;;;;;;18.91;44.63;101489.84;5025259;28;20219;-76
2023/05/16 11:15:22;;;;;;;5.80;1.77;;;;;;;18.04;47.10;101555.69;5010707;28;20294;-75